sensor_id;sensor_type;location;lat;lon;timestamp;pressure;altitude;pressure_sealevel;temperature;humidity
30302;BME280;17111;52.130;5.028;2023-04-09T00:01:32;102734.88;;;18.75;46.38
30302;BME280;17111;52.130;5.028;2023-04-09T00:03:58;102733.03;;;18.76;46.53
30302;BME280;17111;52.130;5.028;2023-04-09T00:06:26;102725.00;;;18.76;46.30
30302;BME280;17111;52.130;5.028;2023-04-09T00:08:52;102738.41;;;18.76;46.42
30302;BME280;17111;52.130;5.028;2023-04-09T00:11:19;102734.03;;;18.74;46.14
30302;BME280;17111;52.130;5.028;2023-04-09T00:13:46;102730.34;;;18.76;46.09
30302;BME280;17111;52.130;5.028;2023-04-09T00:16:13;102727.81;;;18.74;46.17
30302;BME280;17111;52.130;5.028;2023-04-09T00:18:40;102733.16;;;18.74;46.19
30302;BME280;17111;52.130;5.028;2023-04-09T00:21:07;102734.13;;;18.73;46.17
30302;BME280;17111;52.130;5.028;2023-04-09T00:23:34;102725.22;;;18.72;46.17
30302;BME280;17111;52.130;5.028;2023-04-09T00:26:01;102718.97;;;18.72;46.44
30302;BME280;17111;52.130;5.028;2023-04-09T00:28:28;102720.81;;;18.71;46.10
30302;BME280;17111;52.130;5.028;2023-04-09T00:30:54;102717.16;;;18.72;46.00
30302;BME280;17111;52.130;5.028;2023-04-09T00:33:21;102718.13;;;18.71;46.50
30302;BME280;17111;52.130;5.028;2023-04-09T00:35:47;102712.75;;;18.71;46.12
30302;BME280;17111;52.130;5.028;2023-04-09T00:38:14;102710.06;;;18.71;46.40
30302;BME280;17111;52.130;5.028;2023-04-09T00:40:41;102710.06;;;18.71;45.80
30302;BME280;17111;52.130;5.028;2023-04-09T00:43:07;102710.19;;;18.70;46.23
30302;BME280;17111;52.130;5.028;2023-04-09T00:45:34;102708.41;;;18.69;46.47
30302;BME280;17111;52.130;5.028;2023-04-09T00:48:02;102703.94;;;18.69;46.65
30302;BME280;17111;52.130;5.028;2023-04-09T00:50:28;102702.19;;;18.68;46.13
30302;BME280;17111;52.130;5.028;2023-04-09T00:52:55;102702.19;;;18.68;46.34
30302;BME280;17111;52.130;5.028;2023-04-09T00:55:22;102702.19;;;18.68;46.78
30302;BME280;17111;52.130;5.028;2023-04-09T00:57:48;102697.81;;;18.67;46.15
30302;BME280;17111;52.130;5.028;2023-04-09T01:00:15;102695.13;;;18.67;46.13
30302;BME280;17111;52.130;5.028;2023-04-09T01:02:42;102695.13;;;18.67;46.51
30302;BME280;17111;52.130;5.028;2023-04-09T01:05:10;102694.25;;;18.67;46.04
30302;BME280;17111;52.130;5.028;2023-04-09T01:10:41;102685.44;;;18.65;46.67
30302;BME280;17111;52.130;5.028;2023-04-09T01:13:11;102691.69;;;18.65;46.15
30302;BME280;17111;52.130;5.028;2023-04-09T01:15:45;102684.72;;;18.63;46.42
30302;BME280;17111;52.130;5.028;2023-04-09T01:21:06;102678.50;;;18.62;46.13
30302;BME280;17111;52.130;5.028;2023-04-09T01:29:12;102684.06;;;18.59;46.27
30302;BME280;17111;52.130;5.028;2023-04-09T01:31:41;102680.53;;;18.59;46.03
30302;BME280;17111;52.130;5.028;2023-04-09T01:34:10;102678.84;;;18.58;46.17
30302;BME280;17111;52.130;5.028;2023-04-09T01:36:39;102689.56;;;18.58;46.32
30302;BME280;17111;52.130;5.028;2023-04-09T01:39:07;102687.84;;;18.57;46.02
30302;BME280;17111;52.130;5.028;2023-04-09T01:41:34;102686.13;;;18.56;46.36
30302;BME280;17111;52.130;5.028;2023-04-09T01:44:02;102687.84;;;18.57;46.07
30302;BME280;17111;52.130;5.028;2023-04-09T01:46:30;102680.63;;;18.57;45.91
30302;BME280;17111;52.130;5.028;2023-04-09T01:48:58;102685.16;;;18.57;46.19
30302;BME280;17111;52.130;5.028;2023-04-09T01:51:24;102685.16;;;18.57;46.40
30302;BME280;17111;52.130;5.028;2023-04-09T01:53:52;102688.69;;;18.57;46.14
30302;BME280;17111;52.130;5.028;2023-04-09T01:56:19;102691.38;;;18.57;45.97
30302;BME280;17111;52.130;5.028;2023-04-09T01:58:46;102684.19;;;18.58;46.42
30302;BME280;17111;52.130;5.028;2023-04-09T02:01:21;102688.69;;;18.57;46.38
30302;BME280;17111;52.130;5.028;2023-04-09T02:04:03;102694.06;;;18.57;45.82
30302;BME280;17111;52.130;5.028;2023-04-09T02:06:47;102690.44;;;18.58;46.16
30302;BME280;17111;52.130;5.028;2023-04-09T02:09:19;102680.53;;;18.59;46.22
30302;BME280;17111;52.130;5.028;2023-04-09T02:11:47;102684.06;;;18.59;46.29
30302;BME280;17111;52.130;5.028;2023-04-09T02:14:16;102687.50;;;18.61;46.18
30302;BME280;17111;52.130;5.028;2023-04-09T02:16:44;102682.25;;;18.60;46.11
30302;BME280;17111;52.130;5.028;2023-04-09T02:19:11;102681.41;;;18.59;45.88
30302;BME280;17111;52.130;5.028;2023-04-09T02:21:38;102683.94;;;18.61;45.92
30302;BME280;17111;52.130;5.028;2023-04-09T02:24:04;102678.56;;;18.61;46.27
30302;BME280;17111;52.130;5.028;2023-04-09T02:26:31;102682.38;;;18.58;45.76
30302;BME280;17111;52.130;5.028;2023-04-09T02:28:58;102679.56;;;18.60;46.15
30302;BME280;17111;52.130;5.028;2023-04-09T02:31:24;102675.16;;;18.59;46.09
30302;BME280;17111;52.130;5.028;2023-04-09T02:33:51;102679.56;;;18.60;46.01
30302;BME280;17111;52.130;5.028;2023-04-09T02:36:19;102683.22;;;18.59;45.80
30302;BME280;17111;52.130;5.028;2023-04-09T02:38:46;102677.00;;;18.58;46.15
30302;BME280;17111;52.130;5.028;2023-04-09T02:41:12;102672.47;;;18.59;46.05
30302;BME280;17111;52.130;5.028;2023-04-09T02:43:39;102669.78;;;18.59;46.22
30302;BME280;17111;52.130;5.028;2023-04-09T02:46:06;102667.09;;;18.59;46.13
30302;BME280;17111;52.130;5.028;2023-04-09T02:48:32;102666.25;;;18.58;46.34
30302;BME280;17111;52.130;5.028;2023-04-09T02:50:59;102663.56;;;18.58;45.89
30302;BME280;17111;52.130;5.028;2023-04-09T02:53:25;102660.88;;;18.58;45.94
30302;BME280;17111;52.130;5.028;2023-04-09T02:55:52;102654.66;;;18.58;45.89
30302;BME280;17111;52.130;5.028;2023-04-09T02:58:19;102658.19;;;18.58;45.77
30302;BME280;17111;52.130;5.028;2023-04-09T03:00:45;102659.16;;;18.57;45.92
30302;BME280;17111;52.130;5.028;2023-04-09T03:03:12;102652.06;;;18.56;45.67
30302;BME280;17111;52.130;5.028;2023-04-09T03:05:39;102652.06;;;18.56;45.75
30302;BME280;17111;52.130;5.028;2023-04-09T03:08:05;102649.38;;;18.56;45.70
30302;BME280;17111;52.130;5.028;2023-04-09T03:10:32;102649.38;;;18.56;45.59
30302;BME280;17111;52.130;5.028;2023-04-09T03:12:58;102645.00;;;18.55;45.78
30302;BME280;17111;52.130;5.028;2023-04-09T03:15:25;102645.97;;;18.54;45.75
30302;BME280;17111;52.130;5.028;2023-04-09T03:17:52;102645.13;;;18.54;45.88
30302;BME280;17111;52.130;5.028;2023-04-09T03:20:18;102638.84;;;18.53;45.72
30302;BME280;17111;52.130;5.028;2023-04-09T03:22:45;102638.84;;;18.53;46.08
30302;BME280;17111;52.130;5.028;2023-04-09T03:25:11;102643.38;;;18.53;46.14
30302;BME280;17111;52.130;5.028;2023-04-09T03:27:38;102642.53;;;18.52;46.18
30302;BME280;17111;52.130;5.028;2023-04-09T03:30:05;102638.97;;;18.52;45.74
30302;BME280;17111;52.130;5.028;2023-04-09T03:32:31;102642.53;;;18.52;45.80
30302;BME280;17111;52.130;5.028;2023-04-09T03:34:58;102637.28;;;18.50;45.87
30302;BME280;17111;52.130;5.028;2023-04-09T03:37:24;102633.75;;;18.50;45.76
30302;BME280;17111;52.130;5.028;2023-04-09T03:39:51;102631.06;;;18.50;45.99
30302;BME280;17111;52.130;5.028;2023-04-09T03:42:17;102626.63;;;18.49;45.94
30302;BME280;17111;52.130;5.028;2023-04-09T03:44:44;102630.19;;;18.49;45.57
30302;BME280;17111;52.130;5.028;2023-04-09T03:47:11;102628.47;;;18.48;45.90
30302;BME280;17111;52.130;5.028;2023-04-09T03:49:37;102628.47;;;18.48;45.90
30302;BME280;17111;52.130;5.028;2023-04-09T03:52:05;102627.50;;;18.49;45.87
30302;BME280;17111;52.130;5.028;2023-04-09T03:54:32;102626.63;;;18.49;45.84
30302;BME280;17111;52.130;5.028;2023-04-09T03:56:58;102619.47;;;18.49;45.89
30302;BME280;17111;52.130;5.028;2023-04-09T03:59:25;102621.25;;;18.49;46.05
30302;BME280;17111;52.130;5.028;2023-04-09T04:01:51;102617.72;;;18.48;45.88
30302;BME280;17111;52.130;5.028;2023-04-09T04:04:18;102617.72;;;18.48;45.88
30302;BME280;17111;52.130;5.028;2023-04-09T04:06:49;102615.16;;;18.47;45.60
30302;BME280;17111;52.130;5.028;2023-04-09T04:09:15;102612.47;;;18.47;45.92
30302;BME280;17111;52.130;5.028;2023-04-09T04:11:42;102612.47;;;18.47;45.76
30302;BME280;17111;52.130;5.028;2023-04-09T04:14:08;102611.63;;;18.46;46.10
30302;BME280;17111;52.130;5.028;2023-04-09T04:16:35;102609.91;;;18.45;46.31
30302;BME280;17111;52.130;5.028;2023-04-09T04:19:02;102614.41;;;18.45;46.26
30302;BME280;17111;52.130;5.028;2023-04-09T04:21:28;102610.88;;;18.44;45.74
30302;BME280;17111;52.130;5.028;2023-04-09T04:23:55;102615.38;;;18.44;45.66
30302;BME280;17111;52.130;5.028;2023-04-09T04:26:21;102608.19;;;18.44;46.12
30302;BME280;17111;52.130;5.028;2023-04-09T04:28:48;102608.31;;;18.43;45.72
30302;BME280;17111;52.130;5.028;2023-04-09T04:31:15;102601.09;;;18.43;46.14
30302;BME280;17111;52.130;5.028;2023-04-09T04:33:41;102612.69;;;18.44;46.24
30302;BME280;17111;52.130;5.028;2023-04-09T04:36:12;102609.16;;;18.43;45.76
30302;BME280;17111;52.130;5.028;2023-04-09T04:38:39;102611.00;;;18.43;46.12
30302;BME280;17111;52.130;5.028;2023-04-09T04:41:07;102607.31;;;18.44;46.19
30302;BME280;17111;52.130;5.028;2023-04-09T04:43:33;102608.31;;;18.43;46.11
30302;BME280;17111;52.130;5.028;2023-04-09T04:46:00;102609.28;;;18.42;45.88
30302;BME280;17111;52.130;5.028;2023-04-09T04:48:27;102614.66;;;18.42;46.07
30302;BME280;17111;52.130;5.028;2023-04-09T04:50:55;102612.91;;;18.41;45.73
30302;BME280;17111;52.130;5.028;2023-04-09T04:53:22;102612.91;;;18.41;45.96
30302;BME280;17111;52.130;5.028;2023-04-09T04:55:50;102610.34;;;18.39;46.23
30302;BME280;17111;52.130;5.028;2023-04-09T04:58:16;102613.81;;;18.41;45.94
30302;BME280;17111;52.130;5.028;2023-04-09T05:00:43;102610.34;;;18.39;45.88
30302;BME280;17111;52.130;5.028;2023-04-09T05:03:10;102613.91;;;18.40;45.94
30302;BME280;17111;52.130;5.028;2023-04-09T05:05:37;102611.22;;;18.40;46.11
30302;BME280;17111;52.130;5.028;2023-04-09T05:08:04;102609.50;;;18.39;46.40
30302;BME280;17111;52.130;5.028;2023-04-09T05:10:30;102614.03;;;18.38;46.49
30302;BME280;17111;52.130;5.028;2023-04-09T05:12:57;102620.38;;;18.37;46.58
30302;BME280;17111;52.130;5.028;2023-04-09T05:15:23;102615.09;;;18.36;46.15
30302;BME280;17111;52.130;5.028;2023-04-09T05:17:50;102618.63;;;18.36;45.99
30302;BME280;17111;52.130;5.028;2023-04-09T05:20:17;102618.75;;;18.35;46.50
30302;BME280;17111;52.130;5.028;2023-04-09T05:22:43;102618.75;;;18.35;46.50
30302;BME280;17111;52.130;5.028;2023-04-09T05:25:10;102621.44;;;18.35;46.32
30302;BME280;17111;52.130;5.028;2023-04-09T05:27:36;102623.25;;;18.34;46.11
30302;BME280;17111;52.130;5.028;2023-04-09T05:30:03;102624.25;;;18.33;46.56
30302;BME280;17111;52.130;5.028;2023-04-09T05:32:30;102626.94;;;18.33;46.33
30302;BME280;17111;52.130;5.028;2023-04-09T05:34:56;102625.19;;;18.32;46.46
30302;BME280;17111;52.130;5.028;2023-04-09T05:37:23;102628.84;;;18.31;46.40
30302;BME280;17111;52.130;5.028;2023-04-09T05:39:49;102628.00;;;18.31;46.13
30302;BME280;17111;52.130;5.028;2023-04-09T05:42:16;102631.66;;;18.30;46.50
30302;BME280;17111;52.130;5.028;2023-04-09T05:44:42;102629.84;;;18.30;46.70
30302;BME280;17111;52.130;5.028;2023-04-09T05:47:09;102623.59;;;18.30;46.58
30302;BME280;17111;52.130;5.028;2023-04-09T05:49:35;102622.75;;;18.29;46.07
30302;BME280;17111;52.130;5.028;2023-04-09T05:52:02;102620.94;;;18.30;46.08
30302;BME280;17111;52.130;5.028;2023-04-09T05:54:29;102624.56;;;18.29;45.90
30302;BME280;17111;52.130;5.028;2023-04-09T05:56:56;102628.97;;;18.30;46.59
30302;BME280;17111;52.130;5.028;2023-04-09T05:59:22;102628.97;;;18.30;46.30
30302;BME280;17111;52.130;5.028;2023-04-09T06:01:49;102624.47;;;18.30;46.05
30302;BME280;17111;52.130;5.028;2023-04-09T06:04:16;102632.38;;;18.32;46.14
30302;BME280;17111;52.130;5.028;2023-04-09T06:06:43;102644.09;;;18.31;46.27
30302;BME280;17111;52.130;5.028;2023-04-09T06:09:09;102640.44;;;18.32;46.34
30302;BME280;17111;52.130;5.028;2023-04-09T06:11:36;102636.91;;;18.31;46.27
30302;BME280;17111;52.130;5.028;2023-04-09T06:14:02;102636.91;;;18.31;46.46
30302;BME280;17111;52.130;5.028;2023-04-09T06:16:29;102642.16;;;18.33;46.18
30302;BME280;17111;52.130;5.028;2023-04-09T06:18:55;102635.94;;;18.32;46.20
30302;BME280;17111;52.130;5.028;2023-04-09T06:21:22;102645.72;;;18.33;46.05
30302;BME280;17111;52.130;5.028;2023-04-09T06:23:49;102644.84;;;18.33;46.06
30302;BME280;17111;52.130;5.028;2023-04-09T06:26:17;102643.03;;;18.33;46.22
30302;BME280;17111;52.130;5.028;2023-04-09T06:28:43;102641.28;;;18.32;46.06
30302;BME280;17111;52.130;5.028;2023-04-09T06:31:10;102647.53;;;18.33;46.31
30302;BME280;17111;52.130;5.028;2023-04-09T06:33:37;102635.94;;;18.32;46.16
30302;BME280;17111;52.130;5.028;2023-04-09T06:36:04;102647.53;;;18.33;46.06
30302;BME280;17111;52.130;5.028;2023-04-09T06:38:30;102640.34;;;18.33;46.40
30302;BME280;17111;52.130;5.028;2023-04-09T06:40:57;102643.03;;;18.33;45.94
30302;BME280;17111;52.130;5.028;2023-04-09T06:43:24;102643.97;;;18.32;46.09
30302;BME280;17111;52.130;5.028;2023-04-09T06:45:50;102641.28;;;18.32;45.99
30302;BME280;17111;52.130;5.028;2023-04-09T06:48:17;102652.88;;;18.33;46.57
30302;BME280;17111;52.130;5.028;2023-04-09T06:50:44;102651.94;;;18.34;46.12
30302;BME280;17111;52.130;5.028;2023-04-09T06:53:10;102650.19;;;18.33;46.32
30302;BME280;17111;52.130;5.028;2023-04-09T06:55:37;102650.31;;;18.31;46.10
30302;BME280;17111;52.130;5.028;2023-04-09T06:58:04;102653.88;;;18.32;46.37
30302;BME280;17111;52.130;5.028;2023-04-09T07:00:31;102653.88;;;18.32;46.30
30302;BME280;17111;52.130;5.028;2023-04-09T07:02:57;102655.47;;;18.34;46.82
30302;BME280;17111;52.130;5.028;2023-04-09T07:05:24;102654.38;;;18.37;46.55
30302;BME280;17111;52.130;5.028;2023-04-09T07:07:51;102660.38;;;18.40;46.52
30302;BME280;17111;52.130;5.028;2023-04-09T07:10:18;102662.00;;;18.43;46.60
30302;BME280;17111;52.130;5.028;2023-04-09T07:12:44;102659.09;;;18.46;46.48
30302;BME280;17111;52.130;5.028;2023-04-09T07:15:11;102653.59;;;18.47;46.72
30302;BME280;17111;52.130;5.028;2023-04-09T07:17:38;102654.25;;;18.51;46.81
30302;BME280;17111;52.130;5.028;2023-04-09T07:20:04;102658.41;;;18.55;47.16
30302;BME280;17111;52.130;5.028;2023-04-09T07:22:31;102651.00;;;18.59;47.34
30302;BME280;17111;52.130;5.028;2023-04-09T07:24:58;102663.09;;;18.64;47.37
30302;BME280;17111;52.130;5.028;2023-04-09T07:27:26;102659.34;;;18.67;47.19
30302;BME280;17111;52.130;5.028;2023-04-09T07:29:57;102659.16;;;18.70;47.59
30302;BME280;17111;52.130;5.028;2023-04-09T07:32:24;102656.34;;;18.71;47.34
30302;BME280;17111;52.130;5.028;2023-04-09T07:34:52;102656.22;;;18.73;47.50
30302;BME280;17111;52.130;5.028;2023-04-09T07:37:19;102662.34;;;18.75;47.98
30302;BME280;17111;52.130;5.028;2023-04-09T07:39:46;102655.03;;;18.77;47.76
30302;BME280;17111;52.130;5.028;2023-04-09T07:42:13;102660.06;;;18.82;48.29
30302;BME280;17111;52.130;5.028;2023-04-09T07:44:40;102653.59;;;18.84;47.68
30302;BME280;17111;52.130;5.028;2023-04-09T07:47:07;102658.75;;;18.87;48.00
30302;BME280;17111;52.130;5.028;2023-04-09T07:49:37;102656.69;;;18.91;48.40
30302;BME280;17111;52.130;5.028;2023-04-09T07:52:04;102654.63;;;18.94;48.22
30302;BME280;17111;52.130;5.028;2023-04-09T07:54:32;102651.81;;;18.96;48.17
30302;BME280;17111;52.130;5.028;2023-04-09T07:56:59;102648.91;;;18.99;48.17
30302;BME280;17111;52.130;5.028;2023-04-09T07:59:29;102646.00;;;19.02;48.48
30302;BME280;17111;52.130;5.028;2023-04-09T08:01:57;102651.25;;;19.04;47.85
30302;BME280;17111;52.130;5.028;2023-04-09T08:04:24;102653.72;;;19.07;48.08
30302;BME280;17111;52.130;5.028;2023-04-09T08:06:51;102661.63;;;19.08;48.21
30302;BME280;17111;52.130;5.028;2023-04-09T08:09:19;102660.44;;;19.12;48.48
30302;BME280;17111;52.130;5.028;2023-04-09T08:11:47;102657.66;;;19.14;47.97
30302;BME280;17111;52.130;5.028;2023-04-09T08:14:15;102656.53;;;19.16;48.00
30302;BME280;17111;52.130;5.028;2023-04-09T08:16:44;102650.09;;;19.19;48.56
30302;BME280;17111;52.130;5.028;2023-04-09T08:19:12;102661.56;;;19.21;48.46
30302;BME280;17111;52.130;5.028;2023-04-09T08:21:40;102655.94;;;19.24;48.25
30302;BME280;17111;52.130;5.028;2023-04-09T08:24:09;102652.19;;;19.27;48.39
30302;BME280;17111;52.130;5.028;2023-04-09T08:26:37;102653.75;;;19.29;47.77
30302;BME280;17111;52.130;5.028;2023-04-09T08:29:04;102650.97;;;19.31;47.77
30302;BME280;17111;52.130;5.028;2023-04-09T08:31:31;102640.94;;;19.33;48.35
30302;BME280;17111;52.130;5.028;2023-04-09T08:33:58;102651.47;;;19.36;48.14
30302;BME280;17111;52.130;5.028;2023-04-09T08:36:25;102645.97;;;19.37;48.30
30302;BME280;17111;52.130;5.028;2023-04-09T08:38:55;102637.91;;;19.37;47.71
30302;BME280;17111;52.130;5.028;2023-04-09T08:41:24;102645.09;;;19.37;48.46
30302;BME280;17111;52.130;5.028;2023-04-09T08:43:51;102649.53;;;19.38;47.99
30302;BME280;17111;52.130;5.028;2023-04-09T08:46:23;102642.94;;;19.42;47.98
30302;BME280;17111;52.130;5.028;2023-04-09T08:48:51;102640.97;;;19.44;48.25
30302;BME280;17111;52.130;5.028;2023-04-09T08:51:20;102646.13;;;19.47;48.35
30302;BME280;17111;52.130;5.028;2023-04-09T08:53:58;102643.31;;;19.48;48.22
30302;BME280;17111;52.130;5.028;2023-04-09T08:56:29;102646.63;;;19.52;47.82
30302;BME280;17111;52.130;5.028;2023-04-09T08:58:55;102649.06;;;19.55;48.13
30302;BME280;17111;52.130;5.028;2023-04-09T09:01:27;102643.56;;;19.57;48.14
30302;BME280;17111;52.130;5.028;2023-04-09T09:04:07;102637.84;;;19.61;48.27
30302;BME280;17111;52.130;5.028;2023-04-09T09:06:36;102641.91;;;19.67;47.57
30302;BME280;17111;52.130;5.028;2023-04-09T09:09:14;102638.84;;;19.71;48.59
30302;BME280;17111;52.130;5.028;2023-04-09T09:11:46;102640.31;;;19.76;48.12
30302;BME280;17111;52.130;5.028;2023-04-09T09:14:16;102635.56;;;19.79;47.82
30302;BME280;17111;52.130;5.028;2023-04-09T09:17:02;102634.56;;;19.80;47.75
30302;BME280;17111;52.130;5.028;2023-04-09T09:19:31;102634.09;;;19.86;48.17
30302;BME280;17111;52.130;5.028;2023-04-09T09:22:05;102637.28;;;19.91;48.00
30302;BME280;17111;52.130;5.028;2023-04-09T09:24:45;102629.91;;;19.93;47.71
30302;BME280;17111;52.130;5.028;2023-04-09T09:27:31;102631.53;;;19.96;48.40
30302;BME280;17111;52.130;5.028;2023-04-09T09:30:00;102636.66;;;19.99;47.87
30302;BME280;17111;52.130;5.028;2023-04-09T09:32:26;102632.84;;;20.02;47.70
30302;BME280;17111;52.130;5.028;2023-04-09T09:35:04;102629.06;;;20.04;48.08
30302;BME280;17111;52.130;5.028;2023-04-09T09:37:32;102631.38;;;20.09;47.39
30302;BME280;17111;52.130;5.028;2023-04-09T09:39:59;102632.13;;;20.11;47.82
30302;BME280;17111;52.130;5.028;2023-04-09T09:42:26;102619.38;;;20.13;47.79
30302;BME280;17111;52.130;5.028;2023-04-09T09:44:53;102621.97;;;20.14;46.83
30302;BME280;17111;52.130;5.028;2023-04-09T09:47:21;102609.22;;;20.16;47.37
30302;BME280;17111;52.130;5.028;2023-04-09T09:49:48;102621.47;;;20.20;47.04
30302;BME280;17111;52.130;5.028;2023-04-09T09:52:24;102616.06;;;20.20;46.77
30302;BME280;17111;52.130;5.028;2023-04-09T09:54:53;102617.53;;;20.25;47.54
30302;BME280;17111;52.130;5.028;2023-04-09T09:57:24;102613.84;;;20.26;46.89
30302;BME280;17111;52.130;5.028;2023-04-09T09:59:59;102613.75;;;20.27;46.85
30302;BME280;17111;52.130;5.028;2023-04-09T10:02:28;102600.16;;;20.29;47.23
30302;BME280;17111;52.130;5.028;2023-04-09T10:05:01;102592.69;;;20.32;47.27
30302;BME280;17111;52.130;5.028;2023-04-09T10:07:29;102600.63;;;20.34;47.67
30302;BME280;17111;52.130;5.028;2023-04-09T10:09:57;102591.44;;;20.36;47.54
30302;BME280;17111;52.130;5.028;2023-04-09T10:12:26;102594.75;;;20.40;47.27
30302;BME280;17111;52.130;5.028;2023-04-09T10:14:54;102590.22;;;20.40;47.33
30302;BME280;17111;52.130;5.028;2023-04-09T10:17:25;102584.81;;;20.40;46.93
30302;BME280;17111;52.130;5.028;2023-04-09T10:20:27;102582.13;;;20.40;47.16
30302;BME280;17111;52.130;5.028;2023-04-09T10:23:02;102576.34;;;20.45;47.50
30302;BME280;17111;52.130;5.028;2023-04-09T10:25:29;102568.16;;;20.46;47.55
30302;BME280;17111;52.130;5.028;2023-04-09T10:28:00;102567.06;;;20.49;46.89
30302;BME280;17111;52.130;5.028;2023-04-09T10:30:34;102559.72;;;20.51;47.58
30302;BME280;17111;52.130;5.028;2023-04-09T10:33:13;102561.28;;;20.54;47.40
30302;BME280;17111;52.130;5.028;2023-04-09T10:35:40;102560.94;;;20.58;47.15
30302;BME280;17111;52.130;5.028;2023-04-09T10:38:12;102550.00;;;20.60;47.13
30302;BME280;17111;52.130;5.028;2023-04-09T10:40:41;102551.47;;;20.64;47.52
30302;BME280;17111;52.130;5.028;2023-04-09T10:43:08;102549.47;;;20.66;47.10
30302;BME280;17111;52.130;5.028;2023-04-09T10:45:40;102551.06;;;20.68;46.95
30302;BME280;17111;52.130;5.028;2023-04-09T10:48:11;102548.72;;;20.75;46.86
30302;BME280;17111;52.130;5.028;2023-04-09T10:50:43;102543.06;;;20.78;46.42
30302;BME280;17111;52.130;5.028;2023-04-09T10:53:21;102543.53;;;20.83;46.53
30302;BME280;17111;52.130;5.028;2023-04-09T10:55:51;102538.00;;;20.85;46.54
30302;BME280;17111;52.130;5.028;2023-04-09T10:58:18;102551.34;;;20.86;46.85
30302;BME280;17111;52.130;5.028;2023-04-09T11:00:46;102549.63;;;20.85;46.38
30302;BME280;17111;52.130;5.028;2023-04-09T11:03:24;102554.03;;;20.86;45.95
30302;BME280;17111;52.130;5.028;2023-04-09T11:06:07;102543.13;;;20.88;46.11
30302;BME280;17111;52.130;5.028;2023-04-09T11:08:36;102537.34;;;20.92;45.94
30302;BME280;17111;52.130;5.028;2023-04-09T11:11:07;102533.81;;;20.92;45.64
30302;BME280;17111;52.130;5.028;2023-04-09T11:13:34;102529.25;;;20.92;46.12
30302;BME280;17111;52.130;5.028;2023-04-09T11:16:01;102528.41;;;20.92;45.97
30302;BME280;17111;52.130;5.028;2023-04-09T11:18:33;102526.72;;;20.91;46.23
30302;BME280;17111;52.130;5.028;2023-04-09T11:21:02;102516.91;;;20.90;46.20
30302;BME280;17111;52.130;5.028;2023-04-09T11:23:30;102521.31;;;20.91;46.25
30302;BME280;17111;52.130;5.028;2023-04-09T11:25:57;102521.63;;;20.98;46.00
30302;BME280;17111;52.130;5.028;2023-04-09T11:28:25;102520.25;;;21.03;45.84
30302;BME280;17111;52.130;5.028;2023-04-09T11:30:51;102515.47;;;21.07;45.67
30302;BME280;17111;52.130;5.028;2023-04-09T11:33:18;102511.63;;;21.09;45.44
30302;BME280;17111;52.130;5.028;2023-04-09T11:35:46;102514.22;;;21.11;45.65
30302;BME280;17111;52.130;5.028;2023-04-09T11:38:13;102514.31;;;21.09;45.08
30302;BME280;17111;52.130;5.028;2023-04-09T11:40:41;102522.31;;;21.11;44.97
30302;BME280;17111;52.130;5.028;2023-04-09T11:43:15;102508.66;;;21.12;45.12
30302;BME280;17111;52.130;5.028;2023-04-09T11:45:43;102508.41;;;21.15;45.27
30302;BME280;17111;52.130;5.028;2023-04-09T11:48:10;102507.41;;;21.16;45.23
30302;BME280;17111;52.130;5.028;2023-04-09T11:50:38;102493.94;;;21.16;44.70
30302;BME280;17111;52.130;5.028;2023-04-09T11:53:18;102491.94;;;21.18;44.96
30302;BME280;17111;52.130;5.028;2023-04-09T11:55:48;102487.88;;;21.24;44.32
30302;BME280;17111;52.130;5.028;2023-04-09T11:58:15;102493.53;;;21.21;44.55
30302;BME280;17111;52.130;5.028;2023-04-09T12:00:42;102489.84;;;21.22;44.48
30302;BME280;17111;52.130;5.028;2023-04-09T12:03:09;102498.25;;;21.29;44.16
30302;BME280;17111;52.130;5.028;2023-04-09T12:05:37;102488.78;;;21.34;44.16
30302;BME280;17111;52.130;5.028;2023-04-09T12:08:07;102501.00;;;21.38;44.09
30302;BME280;17111;52.130;5.028;2023-04-09T12:10:36;102490.53;;;21.45;43.95
30302;BME280;17111;52.130;5.028;2023-04-09T12:13:08;102493.69;;;21.50;43.53
30302;BME280;17111;52.130;5.028;2023-04-09T12:15:40;102491.44;;;21.55;43.43
30302;BME280;17111;52.130;5.028;2023-04-09T12:18:10;102488.44;;;21.58;43.12
30302;BME280;17111;52.130;5.028;2023-04-09T12:20:46;102494.41;;;21.52;43.59
30302;BME280;17111;52.130;5.028;2023-04-09T12:25:43;102493.84;;;21.58;43.32
30302;BME280;17111;52.130;5.028;2023-04-09T12:28:12;102499.72;;;21.63;43.07
30302;BME280;17111;52.130;5.028;2023-04-09T12:30:41;102493.03;;;21.67;43.26
30302;BME280;17111;52.130;5.028;2023-04-09T12:33:11;102486.78;;;21.67;42.96
30302;BME280;17111;52.130;5.028;2023-04-09T12:35:37;102489.19;;;21.70;43.22
30302;BME280;17111;52.130;5.028;2023-04-09T12:38:04;102488.94;;;21.73;43.08
30302;BME280;17111;52.130;5.028;2023-04-09T12:40:31;102489.66;;;21.75;42.55
30302;BME280;17111;52.130;5.028;2023-04-09T12:42:57;102494.06;;;21.76;42.80
30302;BME280;17111;52.130;5.028;2023-04-09T12:45:24;102496.75;;;21.76;42.64
30302;BME280;17111;52.130;5.028;2023-04-09T12:47:51;102490.03;;;21.71;42.41
30302;BME280;17111;52.130;5.028;2023-04-09T12:50:18;102487.91;;;21.64;42.74
30302;BME280;17111;52.130;5.028;2023-04-09T12:52:45;102484.63;;;21.61;42.90
30302;BME280;17111;52.130;5.028;2023-04-09T12:55:12;102495.69;;;21.58;42.69
30302;BME280;17111;52.130;5.028;2023-04-09T12:57:43;102489.00;;;21.52;42.73
30302;BME280;17111;52.130;5.028;2023-04-09T13:00:10;102490.00;;;21.51;42.72
30302;BME280;17111;52.130;5.028;2023-04-09T13:02:37;102487.16;;;21.53;42.93
30302;BME280;17111;52.130;5.028;2023-04-09T13:05:04;102492.72;;;21.51;43.14
30302;BME280;17111;52.130;5.028;2023-04-09T13:07:31;102491.28;;;21.47;43.18
30302;BME280;17111;52.130;5.028;2023-04-09T13:09:57;102488.84;;;21.44;42.87